Anmoore, West Virginia
Current Conditions -  °F | °C
As of 7:02 AM on Monday 26 Jan 2015 (Local Time) from KCKB Reporting Station
Haze Haze  
Wind Chill:   Ceiling: 2500
Heat Index:   Visibility: 2.5mi
Dew Point:   Wind: 0mph
Humidity: 100%   Direction: NA
Pressure: 29.64"   Gusts: NA
Location:  39.26°N, 80.29°W
Report Text: KCKB 261202Z 00000KT 2 1/2SM BR OVC025 02/02 A2964 RMK AO2 T00170017
Loading
Personal Weather Stations






























Interactive Weather Map New forecast layout! Learn more

10-Day Weather Forecast

Advertisements
Track Severe Weather on mobile